Aérodrome :







RETROUVEZ-NOUS SUR...

 
LOGIN :

S'inscrire | Disclaimer

   EN    FR    IT 

 









Légende :    VFR   VFR Marginal   IFR   IFR Intensif   IFR Très Intensif
Visi : 
Plafond : 
>= 8 km
>= 3000ft
5 à 8 km
1000 à 3000 ft
1500m à 5 km
500 à 1000 ft
800 à 1500m
200 à 500 ft
< 800m
< 200 ft
Symboles :   Orages  Brouillard  Fortes neiges  Fortes précipitations  Vent > 20 kt






- Altitude de l'aérodrome : 1005 ft
- Code IATA : YAH


CYAH - La Grande-4

DERNIER METAR :
  • 172045Z AUTO 26012KT 6SM -SN OVC024 M25/M29 A3048 RMK SLP370

METARs EXPIRÉS :
  • 172036Z AUTO 25012KT 5SM -SN BKN024 OVC030 M25/M29 A3048 RMK SLP368
  • 172021Z AUTO 25011KT 6SM -SN OVC028 M25/M29 A3048 RMK SLP369
  • 172003Z AUTO 26008KT 7SM OVC026 M25/M29 A3047 RMK SLP367
  • 171943Z AUTO 26010G15KT 9SM OVC024 M25/M29 A3047 RMK SLP367
  • 171924Z AUTO 26010G15KT 6SM -SN BKN026 OVC038 M25/M29 A3047 RMK SLP365
  • 171915Z AUTO 25011KT 4SM -SN BKN026 OVC038 M25/M29 A3046 RMK SLP363
  • 171906Z AUTO 26010KT 5SM -SN BKN026 OVC038 M25/M29 A3046 RMK SLP361
  • 171848Z AUTO 27011G16KT 3SM -SN BKN024 OVC038 M25/M29 A3046 RMK SLP362
  • 171800Z AUTO 25012KT 5SM HZ OVC022 M26/M30 A3046 RMK SLP363

TAF TAF CYAH
Valide du 17 à 18h jusqu'au 17 à 22h UTC


171744Z 1718/1722 25010G20KT P6SM OVC025
TEMPO 1718/1722 2SM -SN OVC020 RMK FCST BASED ON AUTO OBS. NXT FCST WILL BE ISSUED AT 181145Z



MET'MAP, la Météo Aéronautique d'un coup d'oeil ! - Copyright ORBIFLY Décembre 2007 - Disclaimer

ORBIFLY MET'MAP TEAM :

Programmation & Développement : Alexandra Zaïnal
Sur une idée originale de : Baudouin d'Aumeries
Assistance à la programmation : Marc-Olivier Méhu
Soutien technique & logistique : Manuel Goepfert

Contact : metmap@orbifly.com




SOURCES & CREDITS :

   NOAA